createdAt,value
2023-05-15T00:01:56.945Z,11.40
2023-05-15T00:04:23.788Z,11.40
2023-05-15T00:06:51.275Z,11.50
2023-05-15T00:09:18.392Z,11.50
2023-05-15T00:11:45.241Z,11.60
2023-05-15T00:14:12.098Z,11.60
2023-05-15T04:25:07.966Z,10.90
2023-05-15T04:27:36.124Z,10.90
2023-05-15T04:30:06.846Z,10.90
2023-05-15T04:32:34.054Z,10.90
2023-05-15T04:35:01.504Z,10.90
2023-05-15T04:37:29.346Z,10.90
2023-05-15T04:39:56.234Z,10.90
2023-05-15T04:42:23.133Z,10.90
2023-05-15T04:44:50.122Z,10.90
2023-05-15T04:47:16.989Z,10.90
2023-05-15T04:49:43.916Z,11.00
2023-05-15T04:52:10.780Z,11.00
2023-05-15T04:54:37.585Z,10.90
2023-05-15T04:57:04.747Z,11.00
2023-05-15T04:59:31.580Z,10.90
2023-05-15T05:01:58.493Z,10.90
2023-05-15T05:04:25.503Z,10.90
2023-05-15T05:06:52.346Z,10.90
2023-05-15T05:09:20.268Z,10.90
2023-05-15T05:11:47.796Z,11.00
2023-05-15T05:14:15.444Z,11.00
2023-05-15T05:16:44.824Z,11.00
2023-05-15T05:19:11.786Z,11.00
2023-05-15T05:21:38.816Z,11.00
2023-05-15T05:24:05.921Z,11.00
2023-05-15T05:26:32.786Z,11.00
2023-05-15T05:28:59.633Z,11.00
2023-05-15T05:31:26.556Z,11.00
2023-05-15T05:33:53.460Z,11.00
2023-05-15T05:36:20.399Z,11.00
2023-05-15T05:38:47.240Z,11.00
2023-05-15T05:41:14.121Z,11.00
2023-05-15T05:43:41.091Z,11.00
2023-05-15T05:46:07.945Z,11.00
2023-05-15T05:48:34.796Z,11.00
2023-05-15T05:51:01.611Z,11.00
2023-05-15T05:53:28.523Z,11.10
2023-05-15T05:55:55.449Z,11.10
2023-05-15T05:58:26.058Z,11.10
2023-05-15T06:00:54.086Z,11.20
2023-05-15T06:03:21.601Z,11.20
2023-05-15T06:05:48.788Z,11.20
2023-05-15T06:08:15.782Z,11.30
2023-05-15T06:10:42.593Z,11.30
2023-05-15T06:13:09.469Z,11.30
2023-05-15T06:15:36.578Z,11.30
2023-05-15T06:18:03.696Z,11.40
2023-05-15T06:20:30.577Z,11.40
2023-05-15T06:22:57.428Z,11.40
2023-05-15T06:25:24.491Z,11.40
2023-05-15T06:27:51.304Z,11.40
2023-05-15T06:30:18.262Z,11.50
2023-05-15T06:32:45.960Z,11.50
2023-05-15T06:35:12.926Z,11.50
2023-05-15T06:37:39.947Z,11.50
2023-05-15T06:40:07.375Z,11.50
2023-05-15T06:42:34.275Z,11.50
2023-05-15T06:45:01.566Z,11.60
2023-05-15T06:47:28.436Z,11.60
2023-05-15T06:49:55.626Z,11.60
2023-05-15T06:52:22.444Z,11.60
2023-05-15T06:54:49.296Z,11.60
2023-05-15T06:57:16.129Z,11.60
2023-05-15T06:59:43.093Z,11.60
2023-05-15T07:02:09.965Z,11.60
2023-05-15T07:04:36.998Z,11.70
2023-05-15T07:07:04.196Z,11.70
2023-05-15T07:09:31.162Z,11.80
2023-05-15T07:11:58.028Z,12.00
2023-05-15T07:14:24.861Z,12.30
2023-05-15T07:16:51.702Z,12.50
2023-05-15T07:19:22.071Z,12.70
2023-05-15T07:21:49.071Z,12.90
2023-05-15T07:24:15.984Z,13.10
2023-05-15T07:26:54.237Z,13.40
2023-05-15T07:29:24.462Z,13.70
2023-05-15T07:31:51.339Z,13.90
2023-05-15T07:34:18.259Z,14.10
2023-05-15T07:36:45.107Z,14.60
2023-05-15T07:39:12.297Z,15.60
2023-05-15T07:41:39.323Z,16.90
2023-05-15T07:44:06.615Z,18.30
2023-05-15T07:46:34.436Z,19.70
2023-05-15T07:49:01.353Z,21.10
2023-05-15T07:51:28.303Z,22.30
2023-05-15T07:53:55.203Z,23.30
2023-05-15T07:56:22.261Z,24.10
2023-05-15T07:58:49.158Z,25.00
2023-05-15T08:01:16.169Z,25.70
2023-05-15T08:03:43.313Z,26.40
2023-05-15T08:06:10.150Z,26.90
2023-05-15T08:08:37.007Z,27.30
2023-05-15T08:11:03.844Z,27.60
2023-05-15T08:13:30.750Z,28.00
2023-05-15T08:15:57.647Z,28.30
2023-05-15T08:18:24.534Z,28.70
2023-05-15T08:20:52.334Z,29.00
2023-05-15T08:23:19.230Z,29.20
2023-05-15T08:25:46.154Z,29.50
2023-05-15T08:28:13.058Z,29.60
2023-05-15T08:30:39.941Z,29.70
2023-05-15T08:33:06.889Z,29.80
2023-05-15T08:35:33.793Z,29.80
2023-05-15T08:38:00.658Z,29.80
2023-05-15T08:43:06.799Z,29.90
2023-05-15T08:45:34.053Z,30.00
2023-05-15T08:48:02.053Z,30.20
2023-05-15T08:50:29.221Z,30.30
2023-05-15T08:52:58.439Z,30.40
2023-05-15T08:55:25.784Z,30.40
2023-05-15T08:57:54.993Z,29.90
2023-05-15T09:00:22.706Z,29.10
2023-05-15T09:02:49.679Z,28.50
2023-05-15T09:05:16.769Z,28.20
2023-05-15T09:07:45.066Z,28.10
2023-05-15T09:10:14.098Z,28.30
2023-05-15T09:12:44.682Z,28.40
2023-05-15T09:15:22.460Z,28.60
2023-05-15T09:17:51.231Z,28.80
2023-05-15T09:20:32.897Z,28.80
2023-05-15T09:23:02.122Z,28.80
2023-05-15T09:25:42.838Z,28.70
2023-05-15T09:28:11.529Z,28.70
2023-05-15T09:30:39.636Z,28.70
2023-05-15T09:33:07.056Z,28.60
2023-05-15T09:35:39.212Z,28.30
2023-05-15T09:38:11.501Z,28.00
2023-05-15T09:40:40.676Z,27.70
2023-05-15T09:43:10.912Z,27.40
2023-05-15T09:45:37.966Z,27.00
2023-05-15T09:48:06.105Z,26.60
2023-05-15T09:50:38.476Z,26.30
2023-05-15T09:53:05.966Z,26.10
2023-05-15T09:55:34.568Z,25.80
2023-05-15T09:58:09.097Z,25.60
2023-05-15T10:00:36.932Z,25.50
2023-05-15T10:03:16.840Z,25.50
2023-05-15T10:05:44.466Z,25.40
2023-05-15T10:08:12.743Z,25.50
2023-05-15T10:10:39.820Z,25.70
2023-05-15T10:13:08.298Z,25.90
2023-05-15T10:15:37.289Z,26.10
2023-05-15T10:18:05.460Z,26.40
2023-05-15T10:20:35.592Z,26.80
2023-05-15T10:23:05.235Z,27.40
2023-05-15T10:25:35.161Z,28.10
2023-05-15T10:28:03.338Z,28.70
2023-05-15T10:30:32.232Z,29.40
2023-05-15T10:32:59.853Z,30.20
2023-05-15T10:35:28.053Z,30.90
2023-05-15T10:37:55.148Z,31.60
2023-05-15T10:40:23.677Z,32.20
2023-05-15T10:42:50.732Z,33.00
2023-05-15T10:45:17.559Z,33.60
2023-05-15T10:47:45.729Z,34.20
2023-05-15T10:50:13.859Z,34.50
2023-05-15T10:52:41.820Z,34.70
2023-05-15T10:55:17.381Z,34.80
2023-05-15T10:57:47.677Z,35.10
2023-05-15T11:00:24.171Z,34.90
2023-05-15T11:02:56.987Z,34.70
2023-05-15T11:05:24.713Z,34.50
2023-05-15T11:08:21.543Z,34.30
2023-05-15T11:10:48.481Z,34.20
2023-05-15T11:13:15.356Z,34.20
2023-05-15T11:15:47.155Z,34.10
2023-05-15T11:18:14.715Z,33.80
2023-05-15T11:21:02.662Z,33.80
2023-05-15T11:23:37.486Z,33.60
2023-05-15T11:26:05.975Z,32.80
2023-05-15T11:28:42.541Z,32.50
2023-05-15T11:31:09.527Z,32.10
2023-05-15T11:33:38.793Z,31.60
2023-05-15T11:36:06.985Z,31.60
2023-05-15T11:38:39.747Z,31.70
2023-05-15T11:41:22.104Z,31.80
2023-05-15T11:43:50.273Z,32.10
2023-05-15T11:46:17.509Z,32.50
2023-05-15T11:48:47.825Z,32.80
2023-05-15T11:51:25.952Z,33.10
2023-05-15T11:53:55.316Z,33.50
2023-05-15T11:56:24.483Z,33.30
2023-05-15T11:58:54.975Z,32.90
2023-05-15T12:01:21.869Z,32.60
2023-05-15T12:03:49.886Z,31.70
2023-05-15T12:06:19.115Z,31.10
2023-05-15T12:08:55.877Z,30.80
2023-05-15T12:11:23.830Z,30.30
2023-05-15T12:13:55.022Z,29.60
2023-05-15T12:16:28.492Z,29.40
2023-05-15T12:18:58.952Z,29.70
2023-05-15T12:21:28.972Z,30.10
2023-05-15T12:26:27.290Z,29.90
2023-05-15T12:28:55.636Z,30.30
2023-05-15T12:31:23.039Z,30.80
2023-05-15T12:33:50.320Z,30.60
2023-05-15T12:36:21.060Z,30.10
2023-05-15T12:38:48.905Z,30.20
2023-05-15T12:41:15.684Z,30.50
2023-05-15T12:43:42.704Z,31.00
2023-05-15T12:46:10.042Z,31.50
2023-05-15T12:48:37.153Z,31.70
2023-05-15T12:51:08.213Z,31.90
2023-05-15T12:53:36.076Z,32.00
2023-05-15T12:56:04.632Z,32.20
2023-05-15T12:58:31.605Z,32.50
2023-05-15T13:00:58.925Z,32.60
2023-05-15T13:03:28.123Z,32.40
2023-05-15T13:05:55.383Z,32.00
2023-05-15T13:08:22.272Z,31.30
2023-05-15T13:10:59.642Z,31.00
2023-05-15T13:13:49.958Z,30.80
2023-05-15T13:16:22.113Z,30.00
2023-05-15T13:18:49.510Z,29.20
2023-05-15T13:21:16.885Z,28.60
2023-05-15T13:23:43.784Z,27.80
2023-05-15T13:26:10.815Z,27.40
2023-05-15T13:28:37.652Z,27.60
2023-05-15T13:31:04.855Z,28.00
2023-05-15T13:33:31.974Z,28.10
2023-05-15T13:35:58.803Z,27.90
2023-05-15T13:38:25.767Z,27.70
2023-05-15T13:40:53.328Z,27.80
2023-05-15T13:43:20.201Z,28.20
2023-05-15T13:45:47.121Z,28.80
2023-05-15T13:48:14.012Z,28.90
2023-05-15T13:50:41.009Z,28.60
2023-05-15T13:53:09.345Z,28.40
2023-05-15T13:55:36.208Z,28.70
2023-05-15T13:58:03.159Z,29.20
2023-05-15T14:00:30.127Z,29.30
2023-05-15T14:02:57.026Z,29.00
2023-05-15T14:05:23.966Z,28.90
2023-05-15T14:07:50.855Z,29.00
2023-05-15T14:10:17.667Z,29.30
2023-05-15T14:12:44.586Z,29.60
2023-05-15T14:15:12.047Z,29.60
2023-05-15T14:17:39.725Z,29.10
2023-05-15T14:20:07.458Z,28.40
2023-05-15T14:22:34.304Z,27.60
2023-05-15T14:25:01.877Z,27.10
2023-05-15T14:27:28.733Z,26.90
2023-05-15T14:29:56.749Z,27.10
2023-05-15T14:32:24.871Z,27.40
2023-05-15T14:34:51.914Z,27.60
2023-05-15T14:37:19.485Z,27.80
2023-05-15T14:39:46.352Z,27.70
2023-05-15T14:42:13.218Z,27.50
2023-05-15T14:44:40.103Z,27.10
2023-05-15T14:47:12.831Z,26.70
2023-05-15T14:49:40.446Z,26.20
2023-05-15T14:52:09.146Z,25.80
2023-05-15T14:54:36.556Z,25.50
2023-05-15T14:57:04.020Z,25.30
2023-05-15T14:59:30.968Z,24.80
2023-05-15T15:01:58.148Z,24.30
2023-05-15T15:04:26.750Z,24.00
2023-05-15T15:06:56.994Z,23.60
2023-05-15T15:09:26.402Z,23.30
2023-05-15T15:11:54.653Z,22.90
2023-05-15T15:14:21.551Z,22.60
2023-05-15T15:16:48.631Z,22.30
2023-05-15T15:19:17.496Z,22.00
2023-05-15T15:21:45.986Z,21.70
2023-05-15T15:24:12.845Z,21.30
2023-05-15T15:26:40.151Z,21.10
2023-05-15T15:29:07.284Z,21.10
2023-05-15T15:31:34.206Z,21.20
2023-05-15T15:34:04.400Z,21.40
2023-05-15T15:36:32.440Z,21.50
2023-05-15T15:38:59.293Z,21.50
2023-05-15T15:41:26.192Z,21.50
2023-05-15T15:43:53.974Z,21.30
2023-05-15T15:46:21.157Z,21.10
2023-05-15T15:48:52.238Z,20.70
2023-05-15T15:51:19.110Z,20.30
2023-05-15T15:53:46.563Z,19.90
2023-05-15T15:56:13.434Z,19.70
2023-05-15T15:58:40.404Z,19.40
2023-05-15T16:01:07.323Z,19.20
2023-05-15T16:03:34.331Z,19.10
2023-05-15T16:06:01.222Z,19.10
2023-05-15T16:08:28.054Z,19.00
2023-05-15T16:10:55.139Z,18.90
2023-05-15T16:13:22.128Z,18.80
2023-05-15T16:15:49.182Z,18.80
2023-05-15T16:18:16.110Z,18.70
2023-05-15T16:20:43.001Z,18.60
2023-05-15T16:23:11.732Z,18.40
2023-05-15T16:25:38.792Z,18.30
2023-05-15T16:28:06.070Z,18.10
2023-05-15T16:30:44.783Z,17.90
2023-05-15T16:33:15.524Z,17.80
2023-05-15T16:35:42.577Z,17.70
2023-05-15T16:38:09.621Z,17.60
2023-05-15T16:40:36.545Z,17.40
2023-05-15T16:43:03.445Z,17.40
2023-05-15T16:45:30.674Z,17.30
2023-05-15T16:47:57.905Z,17.20
2023-05-15T16:50:25.051Z,17.10
2023-05-15T16:52:52.136Z,16.90
2023-05-15T16:55:19.382Z,16.80
2023-05-15T16:57:46.596Z,16.70
2023-05-15T17:00:14.661Z,16.70
2023-05-15T17:02:42.436Z,16.60
2023-05-15T17:05:11.882Z,16.60
2023-05-15T17:07:39.019Z,16.50
2023-05-15T17:10:07.330Z,16.40
2023-05-15T17:12:34.734Z,16.40
2023-05-15T17:15:01.791Z,16.30
2023-05-15T17:17:28.964Z,16.20
2023-05-15T17:19:56.438Z,16.20
2023-05-15T17:22:24.889Z,16.10
2023-05-15T17:24:52.416Z,16.10
2023-05-15T17:27:20.094Z,16.00
2023-05-15T17:29:47.464Z,15.90
2023-05-15T17:32:15.841Z,15.90
2023-05-15T17:34:43.241Z,15.80
2023-05-15T17:37:11.114Z,15.70
2023-05-15T17:39:38.096Z,15.60
2023-05-15T17:42:05.562Z,15.50
2023-05-15T17:44:32.447Z,15.50
2023-05-15T17:46:59.471Z,15.40
2023-05-15T17:49:27.062Z,15.30
2023-05-15T17:51:54.238Z,15.20
2023-05-15T17:54:21.176Z,15.10
2023-05-15T17:56:48.686Z,15.00
2023-05-15T17:59:16.051Z,15.00
2023-05-15T18:01:43.099Z,14.90
2023-05-15T18:04:10.348Z,14.90
2023-05-15T18:06:37.361Z,14.80
2023-05-15T18:09:05.192Z,14.70
2023-05-15T18:11:32.247Z,14.60
2023-05-15T18:13:59.266Z,14.40
2023-05-15T18:16:26.350Z,14.20
2023-05-15T18:18:53.509Z,14.20
2023-05-15T18:21:20.542Z,14.10
2023-05-15T18:23:47.495Z,14.00
2023-05-15T18:26:14.670Z,13.90
2023-05-15T18:28:41.554Z,13.80
2023-05-15T18:31:08.496Z,13.70
2023-05-15T18:33:35.512Z,13.60
2023-05-15T18:36:03.155Z,13.60
2023-05-15T18:38:30.982Z,13.50
2023-05-15T18:40:57.753Z,13.40
2023-05-15T18:43:24.688Z,13.40
2023-05-15T18:45:51.614Z,13.30
2023-05-15T18:48:18.516Z,13.30
2023-05-15T18:50:45.441Z,13.20
2023-05-15T18:53:12.450Z,13.20
2023-05-15T18:55:39.423Z,13.20
2023-05-15T18:58:06.520Z,13.10
2023-05-15T19:00:38.929Z,13.10
2023-05-15T19:03:08.447Z,13.10
2023-05-15T19:05:35.706Z,13.00
2023-05-15T19:08:03.122Z,12.90
2023-05-15T19:10:30.581Z,12.80
2023-05-15T19:12:58.191Z,12.80
2023-05-15T19:15:25.558Z,12.70
2023-05-15T19:17:52.769Z,12.70
2023-05-15T19:20:20.080Z,12.70
2023-05-15T19:22:46.909Z,12.70
2023-05-15T19:25:13.896Z,12.60
2023-05-15T19:27:41.326Z,12.60
2023-05-15T19:30:09.911Z,12.50
2023-05-15T19:32:37.278Z,12.50
2023-05-15T19:35:04.815Z,12.50
2023-05-15T19:37:31.658Z,12.50
2023-05-15T19:39:58.533Z,12.40
2023-05-15T19:42:26.120Z,12.40
2023-05-15T19:44:54.587Z,12.40
2023-05-15T19:47:21.744Z,12.40
2023-05-15T19:49:51.314Z,12.30
2023-05-15T19:52:19.557Z,12.30
2023-05-15T19:54:46.421Z,12.20
2023-05-15T19:57:13.276Z,12.20
2023-05-15T19:59:40.064Z,12.20
2023-05-15T20:02:10.521Z,12.20
2023-05-15T20:04:37.702Z,12.20
2023-05-15T20:07:04.874Z,12.20
2023-05-15T20:09:31.759Z,12.10
2023-05-15T20:11:58.689Z,12.00
2023-05-15T20:14:25.607Z,12.00
2023-05-15T20:16:52.528Z,12.00
2023-05-15T20:19:22.026Z,11.90
2023-05-15T20:21:49.937Z,11.90
2023-05-15T20:24:17.803Z,11.90
2023-05-15T20:26:45.368Z,11.90
2023-05-15T20:29:12.288Z,11.90
2023-05-15T20:31:40.524Z,11.90
2023-05-15T20:34:08.161Z,11.80
2023-05-15T20:36:35.945Z,11.80
2023-05-15T20:39:05.779Z,11.70
2023-05-15T20:41:35.794Z,11.70
2023-05-15T20:44:03.343Z,11.70
2023-05-15T20:46:33.309Z,11.60
2023-05-15T20:49:00.524Z,11.60
2023-05-15T20:51:27.439Z,11.60
2023-05-15T20:53:54.269Z,11.50
2023-05-15T20:56:21.660Z,11.50
2023-05-15T20:58:48.596Z,11.50
2023-05-15T21:01:15.788Z,11.40
2023-05-15T21:03:43.453Z,11.50
2023-05-15T21:06:10.409Z,11.50
2023-05-15T21:08:37.353Z,11.40
2023-05-15T21:11:04.286Z,11.40
2023-05-15T21:13:31.193Z,11.40
2023-05-15T21:15:58.051Z,11.30
2023-05-15T21:18:24.957Z,11.30
2023-05-15T21:20:52.913Z,11.30
2023-05-15T21:23:21.086Z,11.30
2023-05-15T21:25:48.123Z,11.20
2023-05-15T21:28:15.609Z,11.20
2023-05-15T21:30:42.577Z,11.20
2023-05-15T21:33:09.560Z,11.20
2023-05-15T21:35:36.797Z,11.10
2023-05-15T21:38:03.628Z,11.10
2023-05-15T21:40:30.406Z,11.00
2023-05-15T21:42:57.265Z,11.00
2023-05-15T21:45:24.416Z,10.90
2023-05-15T21:47:51.492Z,10.90
2023-05-15T21:50:18.463Z,10.80
2023-05-15T21:52:45.398Z,10.80
2023-05-15T21:55:12.233Z,10.70
2023-05-15T21:57:38.992Z,10.60
2023-05-15T22:00:07.544Z,10.60
2023-05-15T22:02:34.798Z,10.50
2023-05-15T22:05:01.967Z,10.50
2023-05-15T22:07:28.848Z,10.40
2023-05-15T22:09:55.873Z,10.40
2023-05-15T22:12:23.023Z,10.30
2023-05-15T22:14:58.259Z,10.30
2023-05-15T22:17:27.268Z,10.30
2023-05-15T22:19:54.511Z,10.30
2023-05-15T22:22:21.452Z,10.30
2023-05-15T22:24:48.296Z,10.30
2023-05-15T22:27:16.749Z,10.20
2023-05-15T22:29:44.021Z,10.20
2023-05-15T22:32:10.875Z,10.20
2023-05-15T22:34:37.782Z,10.20
2023-05-15T22:37:04.958Z,10.20
2023-05-15T22:39:32.200Z,10.20
2023-05-15T22:41:59.011Z,10.20
2023-05-15T22:44:25.923Z,10.20
2023-05-15T22:46:53.071Z,10.20
2023-05-15T22:49:23.720Z,10.20
2023-05-15T22:51:50.802Z,10.20
2023-05-15T22:54:22.263Z,10.20
2023-05-15T22:56:52.010Z,10.20
2023-05-15T22:59:19.039Z,10.20
2023-05-15T23:01:46.445Z,10.20
2023-05-15T23:04:13.974Z,10.20
2023-05-15T23:06:41.153Z,10.20
2023-05-15T23:09:08.770Z,10.20
2023-05-15T23:11:36.270Z,10.20
2023-05-15T23:14:03.572Z,10.20
2023-05-15T23:16:31.722Z,10.20
2023-05-15T23:18:58.723Z,10.20
2023-05-15T23:21:26.058Z,10.20
2023-05-15T23:23:52.902Z,10.20
2023-05-15T23:26:19.829Z,10.20
2023-05-15T23:28:47.101Z,10.30
2023-05-15T23:31:14.514Z,10.20
2023-05-15T23:33:41.720Z,10.20
2023-05-15T23:36:08.812Z,10.20
2023-05-15T23:38:35.744Z,10.20
2023-05-15T23:41:02.654Z,10.20
2023-05-15T23:43:29.766Z,10.20
2023-05-15T23:45:56.640Z,10.20
2023-05-15T23:48:23.629Z,10.20
2023-05-15T23:50:52.351Z,10.10
2023-05-15T23:53:19.313Z,10.00
2023-05-15T23:55:46.153Z,10.00
2023-05-15T23:58:12.989Z,9.80
